Time;durP1;ratioP1;P1;durP2;ratioP2;P2;SDS_P1;SDS_P2;PMS_P1;PMS_P2;Temp;Humidity;BMP_temperature;BMP_pressure;BME280_temperature;BME280_humidity;BME280_pressure;Samples;Min_cycle;Max_cycle;Signal;HPM_P1;HPM_P2
2022/06/03 00:03:02;;;;;;;4.33;2.63;;;12.90;99.90;;;;;;5035661;28;20220;-51
2022/06/03 00:05:55;;;;;;;3.23;2.17;;;12.90;99.90;;;;;;4972282;28;20770;-52
2022/06/03 00:09:12;;;;;;;3.40;2.80;;;12.80;99.90;;;;;;5069367;28;20250;-51
2022/06/03 00:11:59;;;;;;;2.47;2.27;;;12.70;99.90;;;;;;5063647;28;20204;-51
2022/06/03 00:14:54;;;;;;;2.60;2.40;;;12.70;99.90;;;;;;5088035;28;20255;-51
2022/06/03 00:17:43;;;;;;;3.00;2.70;;;12.70;99.90;;;;;;5092010;28;20200;-51
2022/06/03 00:20:29;;;;;;;3.17;2.57;;;12.60;99.90;;;;;;5085548;28;20204;-51
2022/06/03 00:23:25;;;;;;;3.03;2.83;;;12.60;99.90;;;;;;5062727;28;20217;-54
2022/06/03 00:26:11;;;;;;;3.97;3.10;;;12.50;99.90;;;;;;5087122;28;20247;-53
2022/06/03 00:28:57;;;;;;;2.83;2.63;;;12.40;99.90;;;;;;5091527;28;20223;-51
2022/06/03 00:31:50;;;;;;;4.30;2.90;;;12.30;99.90;;;;;;5065409;28;20713;-51
2022/06/03 00:34:46;;;;;;;3.57;2.80;;;12.30;99.90;;;;;;5091070;28;20216;-51
2022/06/03 00:37:30;;;;;;;2.80;2.60;;;12.20;99.90;;;;;;5090852;28;20208;-51
2022/06/03 00:40:19;;;;;;;3.17;2.90;;;12.20;99.90;;;;;;5091349;28;20214;-51
2022/06/03 00:43:10;;;;;;;3.23;2.93;;;12.20;99.90;;;;;;5076139;28;20216;-51
2022/06/03 00:45:59;;;;;;;3.33;2.90;;;12.20;99.90;;;;;;5084545;28;20197;-51
2022/06/03 00:48:42;;;;;;;3.03;2.77;;;12.20;99.90;;;;;;5078156;28;20236;-51
2022/06/03 00:51:58;;;;;;;3.30;3.00;;;12.20;99.90;;;;;;5091251;28;20204;-51
2022/06/03 00:54:40;;;;;;;3.03;2.83;;;12.10;99.90;;;;;;5076041;28;20225;-51
2022/06/03 00:57:43;;;;;;;3.20;2.80;;;12.10;99.90;;;;;;5091397;28;20607;-50
2022/06/03 01:00:20;;;;;;;2.90;2.70;;;12.10;99.90;;;;;;5076312;28;20646;-51
2022/06/03 01:03:08;;;;;;;4.17;2.70;;;12.10;99.90;;;;;;5090693;28;20311;-51
2022/06/03 01:05:49;;;;;;;2.80;2.60;;;12.10;99.90;;;;;;5090814;28;20206;-50
2022/06/03 01:08:38;;;;;;;3.30;2.83;;;12.10;99.90;;;;;;5080892;28;20247;-51
2022/06/03 01:11:19;;;;;;;3.70;3.10;;;12.10;99.90;;;;;;5081204;28;20273;-50
2022/06/03 01:14:02;;;;;;;3.43;3.13;;;12.00;99.90;;;;;;5090487;28;20274;-50
2022/06/03 01:16:45;;;;;;;3.27;2.97;;;12.00;99.90;;;;;;5090457;28;20201;-51
2022/06/03 01:19:55;;;;;;;3.30;3.10;;;12.00;99.90;;;;;;5072747;28;20242;-51
2022/06/03 01:22:59;;;;;;;3.20;3.00;;;12.00;99.90;;;;;;5084872;28;20661;-50
2022/06/03 01:25:57;;;;;;;3.90;2.77;;;12.10;99.90;;;;;;5090561;28;20676;-50
2022/06/03 01:29:02;;;;;;;3.10;2.83;;;12.10;99.90;;;;;;5090789;28;20200;-50
2022/06/03 01:32:22;;;;;;;4.17;3.13;;;12.30;99.90;;;;;;5090514;28;20342;-51
2022/06/03 01:35:04;;;;;;;3.97;3.00;;;12.40;99.90;;;;;;5069804;28;20291;-50
2022/06/03 01:37:36;;;;;;;2.90;2.70;;;12.40;99.90;;;;;;5089703;28;20290;-50
2022/06/03 01:40:24;;;;;;;3.47;3.03;;;12.40;99.90;;;;;;5090441;28;20227;-50
2022/06/03 01:43:19;;;;;;;3.30;3.00;;;12.50;99.90;;;;;;5090187;28;20261;-50
2022/06/03 01:46:16;;;;;;;3.07;2.70;;;12.50;99.90;;;;;;5083632;28;20741;-50
2022/06/03 01:49:31;;;;;;;3.20;2.90;;;12.50;99.90;;;;;;5054351;28;20292;-51
2022/06/03 01:52:54;;;;;;;3.27;3.00;;;12.50;99.90;;;;;;5089211;28;20626;-50
2022/06/03 01:55:59;;;;;;;3.07;2.80;;;12.50;99.90;;;;;;5090214;28;20204;-50
2022/06/03 01:58:45;;;;;;;3.70;3.40;;;12.50;99.90;;;;;;5089830;28;20247;-50
2022/06/03 02:01:42;;;;;;;3.77;2.73;;;12.50;99.90;;;;;;5089820;28;20236;-50
2022/06/03 02:04:35;;;;;;;3.60;2.80;;;12.50;99.90;;;;;;5040732;28;20240;-51
2022/06/03 02:07:39;;;;;;;3.83;3.30;;;12.50;99.90;;;;;;5067205;28;20281;-51
2022/06/03 02:10:43;;;;;;;3.50;3.20;;;12.50;99.90;;;;;;5056335;28;20212;-50
2022/06/03 02:14:03;;;;;;;3.77;3.40;;;12.50;99.90;;;;;;5086356;28;20292;-50
2022/06/03 02:17:16;;;;;;;4.60;3.30;;;12.50;99.90;;;;;;5089495;28;20266;-50
2022/06/03 02:20:22;;;;;;;4.10;3.20;;;12.50;99.90;;;;;;4987160;28;20211;-51
2022/06/03 02:23:33;;;;;;;4.03;3.20;;;12.50;99.90;;;;;;5086471;28;20699;-50
2022/06/03 02:26:43;;;;;;;3.93;2.87;;;12.40;99.90;;;;;;5063998;28;20338;-51
2022/06/03 02:33:04;;;;;;;4.67;2.90;;;12.40;99.90;;;;;;5074414;28;20200;-53
2022/06/03 02:35:52;;;;;;;5.27;3.40;;;12.40;99.90;;;;;;5089104;28;20211;-54
2022/06/03 02:38:43;;;;;;;3.60;3.07;;;12.30;99.90;;;;;;5089021;28;20680;-51
2022/06/03 02:41:38;;;;;;;4.10;3.20;;;12.40;99.90;;;;;;5061061;28;20207;-51
2022/06/03 02:44:36;;;;;;;3.33;3.07;;;12.40;99.90;;;;;;5089067;28;20275;-51
2022/06/03 02:47:35;;;;;;;3.50;3.20;;;12.40;99.90;;;;;;5085934;28;20649;-51
2022/06/03 02:50:27;;;;;;;3.47;3.20;;;12.30;99.90;;;;;;5049181;28;20213;-51
2022/06/03 02:53:31;;;;;;;3.40;3.10;;;12.30;99.90;;;;;;5085643;28;20280;-51
2022/06/03 02:56:38;;;;;;;3.50;3.20;;;12.30;99.90;;;;;;5089211;28;20676;-51
2022/06/03 02:59:27;;;;;;;3.53;3.23;;;12.30;99.90;;;;;;5084191;28;20208;-51
2022/06/03 03:02:17;;;;;;;4.20;3.00;;;12.30;99.90;;;;;;5066424;28;20208;-50
2022/06/03 03:05:01;;;;;;;4.10;3.43;;;12.30;99.90;;;;;;5088610;28;20240;-51
2022/06/03 03:07:49;;;;;;;3.67;3.37;;;12.30;99.90;;;;;;5086022;28;20213;-51
2022/06/03 03:10:30;;;;;;;3.83;3.43;;;12.30;99.90;;;;;;5068711;28;20251;-51
2022/06/03 03:13:23;;;;;;;4.00;3.30;;;12.30;99.90;;;;;;5084420;28;20247;-51
2022/06/03 03:16:17;;;;;;;3.97;3.27;;;12.20;99.90;;;;;;5088913;28;20259;-51
2022/06/03 03:19:08;;;;;;;3.47;3.10;;;12.10;99.90;;;;;;5089537;28;20204;-51
2022/06/03 03:21:59;;;;;;;3.77;3.10;;;12.20;99.90;;;;;;5091132;28;20229;-51
2022/06/03 03:25:09;;;;;;;4.23;3.40;;;12.20;99.90;;;;;;5087956;28;20232;-51
2022/06/03 03:28:21;;;;;;;4.07;3.30;;;12.30;99.90;;;;;;5080735;28;20262;-51
2022/06/03 03:31:02;;;;;;;3.60;3.30;;;12.30;99.90;;;;;;5084906;28;20278;-51
2022/06/03 03:33:56;;;;;;;4.37;3.97;;;12.30;99.90;;;;;;5091704;28;20315;-51
2022/06/03 03:37:02;;;;;;;4.03;3.73;;;12.30;99.90;;;;;;5083774;28;20600;-51
2022/06/03 03:39:55;;;;;;;4.23;3.50;;;12.30;99.90;;;;;;5078667;28;20227;-51
2022/06/03 03:42:46;;;;;;;3.77;3.40;;;12.30;99.90;;;;;;5092521;28;20235;-51
2022/06/03 03:45:57;;;;;;;4.07;3.37;;;12.30;99.90;;;;;;5092418;28;20264;-51
2022/06/03 03:49:04;;;;;;;3.50;3.20;;;12.40;99.90;;;;;;5075996;28;20278;-51
2022/06/03 03:51:59;;;;;;;3.90;3.60;;;12.40;99.90;;;;;;5071780;28;20204;-51
2022/06/03 03:54:58;;;;;;;3.53;3.20;;;12.50;99.90;;;;;;5093211;28;20220;-51
2022/06/03 03:58:12;;;;;;;3.53;3.20;;;12.60;99.90;;;;;;5091962;28;20295;-52
2022/06/03 04:01:25;;;;;;;3.70;2.97;;;12.60;99.90;;;;;;5042680;28;20243;-51
2022/06/03 04:04:22;;;;;;;7.60;3.03;;;12.70;99.90;;;;;;5073024;28;20243;-52
2022/06/03 04:07:34;;;;;;;4.63;3.23;;;12.80;99.90;;;;;;5023981;28;20215;-51
2022/06/03 04:10:35;;;;;;;5.43;2.77;;;13.00;99.90;;;;;;4984729;28;20216;-51
2022/06/03 04:13:32;;;;;;;3.77;2.77;;;13.80;99.90;;;;;;4986487;28;20258;-51
2022/06/03 04:16:44;;;;;;;3.00;2.80;;;15.00;99.90;;;;;;5087222;28;20566;-51
2022/06/03 04:19:54;;;;;;;3.17;2.92;;;15.60;99.90;;;;;;5058805;28;20212;-51
2022/06/03 04:22:57;;;;;;;4.68;2.55;;;16.20;99.90;;;;;;5073544;28;20205;-50
2022/06/03 04:25:54;;;;;;;2.80;2.60;;;16.80;99.90;;;;;;5091799;28;20255;-52
2022/06/03 04:28:54;;;;;;;2.80;2.53;;;17.60;99.90;;;;;;5075222;28;20258;-51
2022/06/03 04:32:04;;;;;;;3.00;2.70;;;18.00;99.90;;;;;;5090660;28;20661;-51
2022/06/03 04:35:09;;;;;;;2.80;2.60;;;18.40;99.90;;;;;;5091197;28;20344;-51
2022/06/03 04:38:14;;;;;;;2.83;2.50;;;18.60;99.90;;;;;;5085959;28;20244;-51
2022/06/03 04:41:31;;;;;;;2.65;2.45;;;18.80;99.90;;;;;;5087202;28;20235;-51
2022/06/03 04:44:56;;;;;;;2.72;2.40;;;18.00;99.90;;;;;;5090716;28;20289;-52
2022/06/03 04:47:58;;;;;;;3.97;2.45;;;16.90;99.90;;;;;;5061082;28;20670;-50
2022/06/03 04:51:10;;;;;;;2.63;2.42;;;17.90;99.90;;;;;;5083714;28;20212;-51
2022/06/03 04:54:31;;;;;;;4.13;2.60;;;18.80;99.90;;;;;;5090546;28;20231;-51
2022/06/03 04:57:41;;;;;;;3.10;2.80;;;19.10;99.70;;;;;;5074526;28;20334;-52
2022/06/03 05:00:19;;;;;;;3.30;2.65;;;19.20;99.30;;;;;;5076992;28;20212;-51
2022/06/03 05:03:22;;;;;;;4.93;2.70;;;19.40;99.00;;;;;;5086700;28;20215;-51
2022/06/03 05:06:23;;;;;;;4.57;2.60;;;19.40;98.70;;;;;;5089918;28;20688;-51
2022/06/03 05:09:45;;;;;;;4.70;2.83;;;19.70;98.30;;;;;;5089845;28;20612;-52
2022/06/03 05:13:03;;;;;;;2.70;2.50;;;19.60;98.30;;;;;;5069603;28;20240;-52
2022/06/03 05:16:11;;;;;;;2.72;2.50;;;20.10;97.70;;;;;;5067195;28;20207;-52
2022/06/03 05:19:17;;;;;;;2.60;2.40;;;20.10;97.10;;;;;;5064611;28;20624;-51
2022/06/03 05:22:26;;;;;;;2.95;2.45;;;20.50;97.00;;;;;;5087200;28;20208;-52
2022/06/03 05:25:22;;;;;;;2.75;2.55;;;20.70;96.80;;;;;;5090493;28;20228;-52
2022/06/03 05:28:24;;;;;;;2.70;2.50;;;20.80;96.80;;;;;;5069777;28;20251;-52
2022/06/03 05:31:32;;;;;;;3.78;2.53;;;21.20;96.00;;;;;;5090297;28;20242;-52
2022/06/03 05:34:38;;;;;;;3.08;2.40;;;21.40;96.00;;;;;;5089798;28;20227;-52
2022/06/03 05:37:39;;;;;;;2.60;2.40;;;21.90;95.30;;;;;;5057490;28;20258;-52
2022/06/03 05:40:26;;;;;;;3.22;2.67;;;22.00;94.90;;;;;;5057356;28;20204;-51
2022/06/03 05:43:34;;;;;;;2.55;2.35;;;22.20;94.90;;;;;;5068653;28;20279;-51
2022/06/03 05:46:10;;;;;;;3.08;2.50;;;22.10;94.70;;;;;;5073286;28;20223;-52
2022/06/03 05:49:10;;;;;;;2.60;2.20;;;22.40;94.40;;;;;;5078238;28;20246;-51
2022/06/03 05:51:53;;;;;;;2.50;2.30;;;22.50;93.40;;;;;;5065763;28;20633;-51
2022/06/03 05:54:36;;;;;;;3.28;2.40;;;22.80;93.80;;;;;;5082557;28;20290;-51
2022/06/03 05:57:17;;;;;;;2.22;2.03;;;23.30;93.40;;;;;;5089353;28;20200;-51
2022/06/03 06:00:07;;;;;;;2.55;1.90;;;23.30;92.80;;;;;;5087237;28;20238;-52
2022/06/03 06:02:41;;;;;;;2.95;2.13;;;23.60;93.00;;;;;;5083156;28;20697;-51
2022/06/03 06:05:25;;;;;;;6.43;2.65;;;23.50;91.90;;;;;;5073506;28;20224;-51
2022/06/03 06:08:03;;;;;;;2.13;1.92;;;23.70;92.50;;;;;;5093408;28;20257;-52
2022/06/03 06:10:40;;;;;;;2.50;2.30;;;23.70;91.60;;;;;;5110085;28;20203;-52
2022/06/03 06:13:41;;;;;;;2.17;1.95;;;23.80;91.80;;;;;;5109085;28;20257;-52
2022/06/03 06:16:16;;;;;;;2.03;1.92;;;23.30;91.80;;;;;;5109926;28;20207;-52
2022/06/03 06:18:53;;;;;;;2.47;2.28;;;23.30;91.90;;;;;;5086523;28;20218;-51
2022/06/03 06:21:34;;;;;;;4.57;2.20;;;23.80;91.80;;;;;;5102526;28;20671;-51
2022/06/03 06:24:11;;;;;;;2.50;2.25;;;23.60;91.40;;;;;;5107817;28;20255;-52
2022/06/03 06:26:56;;;;;;;2.25;2.15;;;23.70;91.70;;;;;;5109736;28;20219;-51
2022/06/03 06:30:00;;;;;;;2.20;2.00;;;23.90;91.30;;;;;;5107334;28;20200;-52
2022/06/03 06:32:53;;;;;;;2.00;1.90;;;23.80;90.80;;;;;;5104495;28;20327;-52
2022/06/03 06:36:07;;;;;;;5.13;2.20;;;23.70;91.50;;;;;;5109579;28;20271;-51
2022/06/03 06:38:46;;;;;;;4.28;2.10;;;23.60;91.60;;;;;;5093466;28;20571;-51
2022/06/03 06:41:27;;;;;;;2.72;2.17;;;24.00;91.70;;;;;;5081369;28;20211;-52
2022/06/03 06:44:07;;;;;;;2.28;2.08;;;24.00;91.10;;;;;;5108676;28;20241;-52
2022/06/03 06:46:53;;;;;;;2.55;2.00;;;24.30;91.90;;;;;;5108981;28;20741;-52
2022/06/03 06:49:27;;;;;;;2.70;2.10;;;24.30;90.60;;;;;;5103971;28;20233;-52
2022/06/03 06:52:37;;;;;;;2.17;1.85;;;24.20;91.10;;;;;;5109054;28;20230;-52
2022/06/03 06:55:13;;;;;;;3.08;2.10;;;24.20;90.90;;;;;;5103995;28;20227;-51
2022/06/03 06:57:45;;;;;;;1.83;1.73;;;24.10;91.10;;;;;;5113357;28;20899;-51
2022/06/03 07:00:22;;;;;;;2.38;2.10;;;24.20;91.10;;;;;;5107822;28;20231;-52
2022/06/03 07:02:54;;;;;;;2.13;1.88;;;24.30;91.50;;;;;;5109984;28;20608;-51
2022/06/03 07:05:28;;;;;;;2.67;2.00;;;24.40;90.70;;;;;;5098514;28;20256;-51
2022/06/03 07:08:04;;;;;;;2.53;1.73;;;24.40;90.70;;;;;;5109439;28;20207;-52
2022/06/03 07:10:41;;;;;;;1.67;1.58;;;24.60;91.00;;;;;;5110802;28;20227;-52
2022/06/03 07:13:13;;;;;;;2.47;1.73;;;24.60;91.60;;;;;;5112932;28;20615;-51
2022/06/03 07:16:08;;;;;;;2.10;1.90;;;25.00;91.10;;;;;;5107352;28;20205;-51
2022/06/03 07:21:56;;;;;;;4.70;1.70;;;24.60;90.00;;;;;;5109378;28;20566;-52
2022/06/03 07:24:38;;;;;;;1.95;1.70;;;24.60;90.70;;;;;;5113321;28;20223;-52
2022/06/03 07:27:12;;;;;;;3.40;1.80;;;24.60;91.00;;;;;;5112720;28;20741;-52
2022/06/03 07:29:46;;;;;;;1.42;1.33;;;24.90;91.00;;;;;;5112483;28;20200;-52
2022/06/03 07:32:19;;;;;;;1.48;1.40;;;24.90;91.00;;;;;;5110795;28;20764;-52
2022/06/03 07:34:53;;;;;;;2.75;1.63;;;25.20;90.80;;;;;;5111361;28;20231;-52
2022/06/03 07:37:27;;;;;;;2.28;1.80;;;25.00;90.60;;;;;;5112028;28;20762;-52
2022/06/03 07:40:00;;;;;;;1.65;1.55;;;25.30;90.50;;;;;;5113464;28;20212;-51
2022/06/03 07:42:38;;;;;;;3.03;1.60;;;25.30;91.60;;;;;;5112585;28;20199;-51
2022/06/03 07:45:39;;;;;;;5.57;2.45;;;25.00;90.50;;;;;;5112881;28;20235;-52
2022/06/03 07:48:13;;;;;;;2.67;2.40;;;25.30;91.70;;;;;;5091094;28;20200;-52
2022/06/03 07:50:54;;;;;;;3.53;2.72;;;25.60;90.70;;;;;;5112376;28;20234;-52
2022/06/03 07:53:31;;;;;;;3.20;1.83;;;25.60;88.30;;;;;;5113342;28;20223;-51
2022/06/03 07:56:00;;;;;;;3.22;2.13;;;25.10;90.00;;;;;;5113273;28;20247;-51
2022/06/03 07:58:32;;;;;;;1.83;1.60;;;25.20;91.40;;;;;;5112768;28;20242;-51
2022/06/03 08:01:00;;;;;;;2.35;1.70;;;25.30;91.50;;;;;;5100923;28;20204;-51
2022/06/03 08:03:36;;;;;;;2.75;1.48;;;25.30;90.50;;;;;;5112105;28;20234;-52
2022/06/03 08:06:07;;;;;;;1.60;1.50;;;25.30;91.10;;;;;;5111982;28;20241;-50
2022/06/03 08:11:31;;;;;;;6.43;1.95;;;24.90;90.50;;;;;;5112163;28;20552;-51
2022/06/03 08:14:00;;;;;;;1.98;1.50;;;25.00;91.90;;;;;;5112098;28;20280;-51
2022/06/03 08:16:35;;;;;;;1.65;1.55;;;25.10;93.00;;;;;;5101875;28;20758;-51
2022/06/03 08:19:08;;;;;;;1.63;1.52;;;25.00;91.50;;;;;;5112527;28;20299;-51
2022/06/03 08:21:42;;;;;;;1.77;1.67;;;24.90;91.60;;;;;;5108538;28;20918;-51
2022/06/03 08:24:14;;;;;;;2.05;1.80;;;24.60;91.30;;;;;;5112602;28;20310;-51
2022/06/03 08:26:45;;;;;;;2.20;1.63;;;24.40;91.60;;;;;;5112286;28;20239;-50
2022/06/03 08:29:20;;;;;;;3.22;1.80;;;24.10;91.80;;;;;;5112331;28;20239;-51
2022/06/03 08:31:49;;;;;;;1.75;1.65;;;24.00;92.30;;;;;;5111485;28;20195;-50
2022/06/03 08:34:24;;;;;;;1.75;1.52;;;24.20;93.10;;;;;;5112035;28;20255;-51
2022/06/03 08:36:55;;;;;;;2.58;1.90;;;24.60;92.00;;;;;;5111930;28;20208;-51
2022/06/03 08:39:25;;;;;;;2.63;1.80;;;24.90;91.70;;;;;;5111746;28;20672;-51
2022/06/03 08:42:09;;;;;;;1.73;1.50;;;24.80;92.30;;;;;;5111806;28;20216;-51
2022/06/03 08:44:47;;;;;;;2.25;1.77;;;24.60;92.70;;;;;;5111148;28;20253;-51
2022/06/03 08:47:19;;;;;;;2.00;1.60;;;24.60;92.00;;;;;;5107804;28;20212;-51
2022/06/03 08:50:00;;;;;;;1.85;1.60;;;24.50;91.10;;;;;;5085007;28;20261;-51
2022/06/03 08:52:39;;;;;;;2.22;1.70;;;24.40;91.50;;;;;;5102702;28;20726;-51
2022/06/03 08:55:39;;;;;;;1.65;1.55;;;24.30;91.00;;;;;;5111551;28;20250;-51
2022/06/03 08:58:27;;;;;;;1.73;1.63;;;24.10;90.50;;;;;;5108950;28;20200;-51
2022/06/03 09:01:02;;;;;;;1.70;1.60;;;24.00;91.70;;;;;;5099857;28;20672;-51
2022/06/03 09:03:39;;;;;;;1.98;1.80;;;23.90;91.70;;;;;;5111191;28;20238;-50
2022/06/03 09:06:14;;;;;;;1.70;1.60;;;24.00;91.50;;;;;;5111139;28;20210;-50
2022/06/03 09:08:50;;;;;;;2.58;1.80;;;24.00;92.30;;;;;;5111382;28;20211;-51
2022/06/03 09:11:25;;;;;;;2.20;1.80;;;23.90;91.60;;;;;;5111017;28;20227;-51
2022/06/03 09:13:58;;;;;;;3.13;1.88;;;24.00;93.20;;;;;;5111065;28;20227;-51
2022/06/03 09:16:29;;;;;;;3.13;1.88;;;23.90;92.10;;;;;;5109704;28;20211;-51
2022/06/03 09:19:02;;;;;;;2.00;1.70;;;23.90;93.00;;;;;;5111518;28;20288;-51
2022/06/03 09:21:33;;;;;;;4.45;1.85;;;23.80;91.90;;;;;;5109163;28;20208;-51
2022/06/03 09:24:12;;;;;;;3.60;1.90;;;23.80;92.90;;;;;;5105235;28;20265;-51
2022/06/03 09:26:43;;;;;;;2.00;1.80;;;23.90;92.60;;;;;;5103236;28;20643;-51
2022/06/03 09:29:14;;;;;;;2.08;1.85;;;23.90;92.90;;;;;;5111149;28;20237;-51
2022/06/03 09:31:48;;;;;;;3.35;1.83;;;24.10;93.00;;;;;;5110619;28;20211;-50
2022/06/03 09:34:39;;;;;;;3.67;1.90;;;23.90;93.10;;;;;;5110965;28;20688;-51
2022/06/03 09:37:07;;;;;;;3.50;1.95;;;23.70;91.80;;;;;;5107470;28;20212;-51
2022/06/03 09:39:44;;;;;;;3.67;1.75;;;23.70;92.30;;;;;;5110912;28;20195;-52
2022/06/03 09:42:16;;;;;;;2.10;1.90;;;23.80;92.40;;;;;;5110668;28;20253;-50
2022/06/03 09:44:46;;;;;;;3.25;1.98;;;24.00;93.50;;;;;;5104214;28;20231;-51
2022/06/03 09:47:18;;;;;;;2.80;2.03;;;24.10;92.90;;;;;;5106731;28;20216;-51
2022/06/03 09:49:47;;;;;;;1.85;1.75;;;24.30;93.10;;;;;;5083419;28;20207;-51
2022/06/03 09:52:20;;;;;;;2.25;2.08;;;24.50;93.20;;;;;;5102724;28;20258;-51
2022/06/03 09:54:50;;;;;;;2.03;1.75;;;24.50;93.90;;;;;;5081787;28;20228;-50
2022/06/03 09:57:22;;;;;;;2.08;1.70;;;24.50;93.60;;;;;;5110174;28;20205;-51
2022/06/03 09:59:57;;;;;;;2.22;1.85;;;24.50;92.90;;;;;;5107922;28;20785;-51
2022/06/03 10:02:26;;;;;;;3.60;2.20;;;24.50;93.60;;;;;;5102950;28;20234;-51
2022/06/03 10:04:55;;;;;;;2.75;2.10;;;24.40;93.10;;;;;;5099403;28;20263;-51
2022/06/03 10:07:25;;;;;;;3.65;2.08;;;24.30;94.20;;;;;;5084392;28;20918;-50
2022/06/03 10:12:52;;;;;;;4.00;2.22;;;24.30;93.90;;;;;;5109460;28;20249;-51
2022/06/03 10:15:39;;;;;;;3.38;2.10;;;24.10;94.30;;;;;;5108094;28;20203;-51
2022/06/03 10:18:30;;;;;;;2.30;2.10;;;24.10;94.20;;;;;;5109371;28;20203;-51
2022/06/03 10:21:30;;;;;;;2.42;1.95;;;24.10;94.30;;;;;;5110014;28;20212;-51
2022/06/03 10:24:01;;;;;;;2.35;2.15;;;24.10;94.40;;;;;;5108949;28;20363;-52
2022/06/03 10:26:49;;;;;;;2.70;2.00;;;24.10;94.30;;;;;;5109512;28;20219;-51
2022/06/03 10:29:19;;;;;;;2.13;1.90;;;24.00;93.90;;;;;;5101241;28;20306;-51
2022/06/03 10:31:54;;;;;;;2.35;1.95;;;24.00;94.10;;;;;;5102071;28;20203;-50
2022/06/03 10:34:35;;;;;;;2.20;2.00;;;23.90;93.70;;;;;;5109024;28;20699;-51
2022/06/03 10:37:08;;;;;;;2.92;2.10;;;24.10;94.20;;;;;;5108442;28;20207;-51
2022/06/03 10:39:38;;;;;;;3.30;2.05;;;24.20;95.10;;;;;;5109594;28;20248;-51
2022/06/03 10:42:12;;;;;;;3.28;2.30;;;24.10;94.20;;;;;;5108965;28;20204;-51
2022/06/03 10:44:45;;;;;;;2.47;2.03;;;24.00;94.60;;;;;;5109531;28;20253;-51
2022/06/03 10:47:23;;;;;;;2.83;2.20;;;24.10;95.20;;;;;;5104387;28;20203;-52
2022/06/03 10:49:54;;;;;;;2.33;2.03;;;24.20;95.30;;;;;;5109314;28;20302;-51
2022/06/03 11:01:20;;;;;;;2.40;2.15;;;24.50;95.10;;;;;;5097832;28;20208;-51
2022/06/03 11:03:51;;;;;;;2.60;2.13;;;24.50;94.30;;;;;;5108833;28;20219;-51
2022/06/03 11:06:23;;;;;;;3.30;2.05;;;24.50;95.00;;;;;;5108778;28;20684;-52
2022/06/03 11:08:56;;;;;;;5.63;2.40;;;24.50;94.80;;;;;;5109199;28;20286;-51
2022/06/03 11:11:41;;;;;;;2.25;2.10;;;24.40;95.20;;;;;;5108880;28;20212;-52
2022/06/03 11:14:36;;;;;;;2.35;2.10;;;24.50;95.00;;;;;;5108862;28;20266;-51
2022/06/03 11:17:09;;;;;;;2.58;2.30;;;24.50;95.10;;;;;;5108495;28;20318;-51
2022/06/03 11:19:42;;;;;;;3.42;2.13;;;24.50;95.10;;;;;;5094285;28;20243;-51
2022/06/03 11:22:19;;;;;;;2.95;2.13;;;24.80;95.70;;;;;;5106658;28;20203;-52
2022/06/03 11:24:52;;;;;;;3.08;2.17;;;24.90;95.80;;;;;;5107409;28;20276;-50
2022/06/03 11:27:24;;;;;;;2.60;2.40;;;25.00;95.60;;;;;;5108709;28;20288;-51
2022/06/03 11:29:58;;;;;;;3.08;2.60;;;25.00;95.70;;;;;;5100411;28;20330;-51
2022/06/03 11:32:28;;;;;;;2.40;2.20;;;25.00;95.20;;;;;;5108521;28;20196;-51
2022/06/03 11:35:02;;;;;;;2.05;1.95;;;24.90;95.30;;;;;;5089181;28;20259;-51
2022/06/03 11:37:35;;;;;;;2.72;2.53;;;24.80;95.00;;;;;;5091921;28;20695;-50
2022/06/03 11:40:09;;;;;;;2.80;2.30;;;24.60;95.00;;;;;;5109679;28;20246;-51
2022/06/03 11:42:45;;;;;;;2.65;2.45;;;24.50;95.30;;;;;;5111888;28;20203;-51
2022/06/03 11:45:18;;;;;;;2.67;2.40;;;24.60;95.60;;;;;;5109034;28;20227;-50
2022/06/03 11:47:52;;;;;;;2.60;2.40;;;24.80;95.10;;;;;;5106364;28;20210;-51
2022/06/03 11:50:23;;;;;;;3.60;2.45;;;24.90;95.50;;;;;;5112627;28;20252;-52
2022/06/03 11:52:54;;;;;;;5.10;2.50;;;25.20;95.90;;;;;;5112104;28;20268;-51
2022/06/03 11:55:24;;;;;;;4.53;2.22;;;25.40;94.60;;;;;;5112742;28;20246;-51
2022/06/03 11:58:01;;;;;;;2.70;2.35;;;25.40;94.80;;;;;;5112186;28;20210;-51
2022/06/03 12:00:34;;;;;;;3.05;2.47;;;25.50;94.90;;;;;;5104601;28;20203;-51
2022/06/03 12:03:19;;;;;;;2.80;2.50;;;25.40;94.90;;;;;;5109777;28;20234;-50
2022/06/03 12:05:55;;;;;;;2.97;2.40;;;25.20;94.40;;;;;;5100991;28;20236;-54
2022/06/03 12:08:33;;;;;;;3.53;2.60;;;25.10;94.40;;;;;;5111320;28;20260;-51
2022/06/03 12:11:09;;;;;;;3.67;2.47;;;24.90;94.40;;;;;;5112324;28;20228;-51
2022/06/03 12:13:36;;;;;;;4.18;2.53;;;24.80;94.80;;;;;;5111101;28;20782;-51
2022/06/03 12:16:11;;;;;;;3.60;2.30;;;24.90;94.90;;;;;;5098766;28;20207;-51
2022/06/03 12:18:55;;;;;;;2.85;2.30;;;25.00;94.80;;;;;;5111794;28;20691;-51
2022/06/03 12:21:49;;;;;;;3.95;2.78;;;25.10;95.30;;;;;;5110334;28;20231;-51
2022/06/03 12:24:40;;;;;;;3.00;2.80;;;25.20;94.20;;;;;;5090885;28;20307;-51
2022/06/03 12:27:17;;;;;;;4.25;2.35;;;25.20;94.10;;;;;;5108840;28;20211;-51
2022/06/03 12:29:51;;;;;;;3.15;2.35;;;25.20;95.10;;;;;;5111882;28;20254;-51
2022/06/03 12:32:27;;;;;;;5.18;2.60;;;25.20;94.20;;;;;;5110687;28;20230;-51
2022/06/03 12:35:29;;;;;;;2.83;2.33;;;25.20;94.40;;;;;;5089843;28;20228;-51
2022/06/03 12:38:31;;;;;;;3.47;2.60;;;25.20;95.50;;;;;;5085251;28;20579;-51
2022/06/03 12:41:01;;;;;;;4.53;2.72;;;25.30;95.30;;;;;;5111764;28;20199;-51
2022/06/03 12:43:53;;;;;;;3.33;2.60;;;25.30;94.70;;;;;;5110728;28;20277;-51
2022/06/03 12:46:41;;;;;;;2.85;2.30;;;25.50;95.60;;;;;;5105220;28;20236;-51
2022/06/03 12:49:48;;;;;;;4.70;2.50;;;25.60;94.40;;;;;;5105503;28;20307;-50
2022/06/03 12:52:35;;;;;;;2.70;2.50;;;25.40;95.90;;;;;;5110160;28;20215;-51
2022/06/03 12:55:07;;;;;;;2.50;2.30;;;25.60;94.20;;;;;;5087204;28;20296;-51
2022/06/03 12:57:44;;;;;;;8.18;2.75;;;25.50;95.00;;;;;;5112091;28;20235;-51
2022/06/03 13:00:16;;;;;;;2.60;2.40;;;25.60;94.90;;;;;;5103368;28;20254;-52
2022/06/03 13:02:50;;;;;;;3.17;2.40;;;25.50;94.80;;;;;;5101234;28;20239;-52
2022/06/03 13:05:34;;;;;;;2.88;2.60;;;25.60;95.10;;;;;;5092065;28;20231;-52
2022/06/03 13:08:05;;;;;;;6.55;2.50;;;25.90;95.50;;;;;;5108179;28;20204;-52
2022/06/03 13:10:59;;;;;;;3.55;2.75;;;26.00;94.70;;;;;;5111099;28;20228;-52
2022/06/03 13:13:50;;;;;;;2.60;2.40;;;25.90;95.40;;;;;;5099067;28;20312;-51
2022/06/03 13:16:44;;;;;;;3.47;2.45;;;25.80;94.90;;;;;;5090235;28;20216;-51
2022/06/03 13:19:44;;;;;;;3.15;2.58;;;25.90;95.00;;;;;;5099784;28;20200;-51
2022/06/03 13:22:26;;;;;;;2.88;2.67;;;25.80;94.80;;;;;;5087259;28;20216;-51
2022/06/03 13:25:32;;;;;;;2.78;2.53;;;25.80;95.00;;;;;;5111614;28;20265;-51
2022/06/03 13:28:22;;;;;;;2.60;2.40;;;25.80;94.70;;;;;;5089666;28;20211;-51
2022/06/03 13:31:16;;;;;;;3.88;2.70;;;25.90;95.00;;;;;;5110645;28;20708;-51
2022/06/03 13:34:16;;;;;;;2.78;2.58;;;25.90;94.80;;;;;;5109626;28;20228;-51
2022/06/03 13:36:56;;;;;;;4.03;2.40;;;25.90;95.10;;;;;;5110043;28;20769;-51
2022/06/03 13:40:05;;;;;;;3.55;2.40;;;25.90;95.20;;;;;;5110764;28;20606;-51
2022/06/03 13:43:04;;;;;;;4.43;2.50;;;25.80;95.30;;;;;;5084797;28;20207;-51
2022/06/03 13:46:10;;;;;;;3.88;2.40;;;25.60;95.00;;;;;;5110699;28;20212;-50
2022/06/03 13:48:55;;;;;;;3.15;2.42;;;25.40;95.40;;;;;;5097243;28;20203;-51
2022/06/03 13:51:57;;;;;;;5.45;2.58;;;25.30;95.90;;;;;;5096719;28;20614;-51
2022/06/03 13:54:34;;;;;;;2.90;2.70;;;25.20;96.00;;;;;;5083390;28;20227;-53
2022/06/03 13:57:20;;;;;;;3.08;2.85;;;25.00;96.00;;;;;;5110822;28;20321;-51
2022/06/03 13:59:48;;;;;;;3.95;2.80;;;25.00;96.50;;;;;;5107686;28;20632;-51
2022/06/03 14:02:32;;;;;;;3.22;2.90;;;25.10;97.30;;;;;;5101190;28;20298;-49
2022/06/03 14:05:05;;;;;;;3.63;2.88;;;25.20;96.70;;;;;;5081872;28;20223;-51
2022/06/03 14:07:40;;;;;;;5.38;3.05;;;25.30;96.30;;;;;;5102942;28;20227;-51
2022/06/03 14:10:16;;;;;;;5.28;2.85;;;25.20;96.60;;;;;;5081782;28;20832;-51
2022/06/03 14:12:54;;;;;;;3.38;3.08;;;25.00;96.50;;;;;;5109236;28;20584;-51
2022/06/03 14:15:27;;;;;;;2.90;2.70;;;24.90;96.40;;;;;;5083254;28;20231;-51
2022/06/03 14:17:58;;;;;;;3.90;2.90;;;24.90;96.60;;;;;;5109706;28;20207;-51
2022/06/03 14:20:31;;;;;;;4.85;3.00;;;24.90;96.60;;;;;;5110000;28;20629;-51
2022/06/03 14:23:11;;;;;;;5.90;3.40;;;25.00;97.50;;;;;;5085992;28;20208;-51
2022/06/03 14:25:46;;;;;;;2.90;2.70;;;25.00;97.40;;;;;;5105213;28;20207;-50
2022/06/03 14:28:25;;;;;;;4.22;2.78;;;25.20;97.10;;;;;;5101116;28;20219;-51
2022/06/03 14:31:00;;;;;;;3.20;2.90;;;25.20;98.00;;;;;;5108771;28;20620;-51
2022/06/03 14:33:33;;;;;;;5.85;3.25;;;25.40;97.60;;;;;;5109136;28;20238;-51
2022/06/03 14:36:02;;;;;;;5.65;3.20;;;25.30;96.50;;;;;;5109432;28;20211;-51
2022/06/03 14:38:36;;;;;;;3.45;2.90;;;25.10;96.60;;;;;;5092927;28;20236;-52
2022/06/03 14:41:08;;;;;;;3.08;2.83;;;25.00;97.00;;;;;;5089245;28;20228;-50
2022/06/03 14:43:38;;;;;;;4.25;3.05;;;25.20;97.10;;;;;;5088564;28;20262;-51
2022/06/03 14:46:16;;;;;;;3.95;2.80;;;25.20;97.20;;;;;;5089573;28;20201;-51
2022/06/03 14:48:49;;;;;;;3.50;3.17;;;25.40;97.30;;;;;;5084952;28;20660;-51